sensor_id;sensor_type;location;lat;lon;timestamp;P1;durP1;ratioP1;P2;durP2;ratioP2
8415;SDS011;4245;42.120;24.732;2022-07-15T00:00:07;3.13;;;2.83;;
8415;SDS011;4245;42.120;24.732;2022-07-15T00:02:37;3.73;;;3.20;;
8415;SDS011;4245;42.120;24.732;2022-07-15T00:05:04;4.47;;;3.07;;
8415;SDS011;4245;42.120;24.732;2022-07-15T00:07:33;3.40;;;3.10;;
8415;SDS011;4245;42.120;24.732;2022-07-15T00:10:00;4.10;;;3.30;;
8415;SDS011;4245;42.120;24.732;2022-07-15T00:12:45;6.83;;;3.20;;
8415;SDS011;4245;42.120;24.732;2022-07-15T00:15:14;6.67;;;3.53;;
8415;SDS011;4245;42.120;24.732;2022-07-15T00:17:44;6.10;;;3.70;;
8415;SDS011;4245;42.120;24.732;2022-07-15T00:20:11;5.53;;;3.40;;
8415;SDS011;4245;42.120;24.732;2022-07-15T00:22:39;5.57;;;3.60;;
8415;SDS011;4245;42.120;24.732;2022-07-15T00:25:07;3.90;;;3.50;;
8415;SDS011;4245;42.120;24.732;2022-07-15T00:27:35;4.27;;;3.60;;
8415;SDS011;4245;42.120;24.732;2022-07-15T00:30:02;5.07;;;3.50;;
8415;SDS011;4245;42.120;24.732;2022-07-15T00:32:30;7.50;;;3.60;;
8415;SDS011;4245;42.120;24.732;2022-07-15T00:34:58;6.13;;;3.60;;
8415;SDS011;4245;42.120;24.732;2022-07-15T00:37:25;5.63;;;3.23;;
8415;SDS011;4245;42.120;24.732;2022-07-15T00:39:51;6.70;;;3.53;;
8415;SDS011;4245;42.120;24.732;2022-07-15T00:42:18;4.93;;;3.50;;
8415;SDS011;4245;42.120;24.732;2022-07-15T00:44:59;7.10;;;3.60;;
8415;SDS011;4245;42.120;24.732;2022-07-15T00:47:26;4.97;;;3.60;;
8415;SDS011;4245;42.120;24.732;2022-07-15T00:49:53;6.40;;;4.70;;
8415;SDS011;4245;42.120;24.732;2022-07-15T00:52:21;4.90;;;3.70;;
8415;SDS011;4245;42.120;24.732;2022-07-15T00:54:51;5.43;;;3.83;;
8415;SDS011;4245;42.120;24.732;2022-07-15T00:57:21;4.80;;;3.50;;
8415;SDS011;4245;42.120;24.732;2022-07-15T00:59:49;5.93;;;3.73;;
8415;SDS011;4245;42.120;24.732;2022-07-15T01:02:18;8.10;;;3.73;;
8415;SDS011;4245;42.120;24.732;2022-07-15T01:04:47;6.10;;;3.97;;
8415;SDS011;4245;42.120;24.732;2022-07-15T01:07:15;4.67;;;3.57;;
8415;SDS011;4245;42.120;24.732;2022-07-15T01:09:43;5.03;;;4.10;;
8415;SDS011;4245;42.120;24.732;2022-07-15T01:12:12;7.17;;;4.47;;
8415;SDS011;4245;42.120;24.732;2022-07-15T01:14:39;6.77;;;4.57;;
8415;SDS011;4245;42.120;24.732;2022-07-15T01:17:08;4.57;;;3.87;;
8415;SDS011;4245;42.120;24.732;2022-07-15T01:19:35;6.03;;;4.63;;
8415;SDS011;4245;42.120;24.732;2022-07-15T01:22:04;4.73;;;4.20;;
8415;SDS011;4245;42.120;24.732;2022-07-15T01:24:32;5.47;;;4.10;;
8415;SDS011;4245;42.120;24.732;2022-07-15T01:26:59;7.03;;;4.03;;
8415;SDS011;4245;42.120;24.732;2022-07-15T01:29:26;7.47;;;4.43;;
8415;SDS011;4245;42.120;24.732;2022-07-15T01:31:53;6.70;;;4.50;;
8415;SDS011;4245;42.120;24.732;2022-07-15T01:34:20;7.63;;;4.73;;
8415;SDS011;4245;42.120;24.732;2022-07-15T01:36:47;7.87;;;4.10;;
8415;SDS011;4245;42.120;24.732;2022-07-15T01:39:16;7.90;;;3.90;;
8415;SDS011;4245;42.120;24.732;2022-07-15T01:41:42;5.90;;;4.60;;
8415;SDS011;4245;42.120;24.732;2022-07-15T01:44:11;5.70;;;4.20;;
8415;SDS011;4245;42.120;24.732;2022-07-15T01:46:39;8.10;;;4.73;;
8415;SDS011;4245;42.120;24.732;2022-07-15T01:49:06;7.23;;;4.40;;
8415;SDS011;4245;42.120;24.732;2022-07-15T01:51:48;9.23;;;4.50;;
8415;SDS011;4245;42.120;24.732;2022-07-15T01:54:17;5.63;;;4.27;;
8415;SDS011;4245;42.120;24.732;2022-07-15T01:56:43;6.70;;;3.90;;
8415;SDS011;4245;42.120;24.732;2022-07-15T01:59:10;5.77;;;4.40;;
8415;SDS011;4245;42.120;24.732;2022-07-15T02:01:37;5.30;;;3.97;;
8415;SDS011;4245;42.120;24.732;2022-07-15T02:04:04;6.30;;;3.90;;
8415;SDS011;4245;42.120;24.732;2022-07-15T02:06:31;6.20;;;3.70;;
8415;SDS011;4245;42.120;24.732;2022-07-15T02:08:58;4.50;;;3.50;;
8415;SDS011;4245;42.120;24.732;2022-07-15T02:11:26;5.13;;;3.90;;
8415;SDS011;4245;42.120;24.732;2022-07-15T02:13:53;7.37;;;3.90;;
8415;SDS011;4245;42.120;24.732;2022-07-15T02:16:24;4.77;;;4.03;;
8415;SDS011;4245;42.120;24.732;2022-07-15T02:18:51;4.70;;;3.57;;
8415;SDS011;4245;42.120;24.732;2022-07-15T02:21:18;7.13;;;3.77;;
8415;SDS011;4245;42.120;24.732;2022-07-15T02:23:45;7.53;;;5.10;;
8415;SDS011;4245;42.120;24.732;2022-07-15T02:26:12;8.73;;;5.13;;
8415;SDS011;4245;42.120;24.732;2022-07-15T02:28:40;8.43;;;5.93;;
8415;SDS011;4245;42.120;24.732;2022-07-15T02:31:07;6.73;;;4.50;;
8415;SDS011;4245;42.120;24.732;2022-07-15T02:33:34;10.73;;;5.10;;
8415;SDS011;4245;42.120;24.732;2022-07-15T02:36:01;6.50;;;4.93;;
8415;SDS011;4245;42.120;24.732;2022-07-15T02:38:28;10.13;;;4.30;;
8415;SDS011;4245;42.120;24.732;2022-07-15T02:40:55;8.13;;;4.37;;
8415;SDS011;4245;42.120;24.732;2022-07-15T02:43:22;4.87;;;3.63;;
8415;SDS011;4245;42.120;24.732;2022-07-15T02:45:50;5.77;;;3.80;;
8415;SDS011;4245;42.120;24.732;2022-07-15T02:48:17;6.03;;;4.10;;
8415;SDS011;4245;42.120;24.732;2022-07-15T02:50:44;5.73;;;4.17;;
8415;SDS011;4245;42.120;24.732;2022-07-15T02:53:11;4.13;;;3.70;;
8415;SDS011;4245;42.120;24.732;2022-07-15T02:55:38;7.60;;;3.70;;
8415;SDS011;4245;42.120;24.732;2022-07-15T02:58:05;5.27;;;3.77;;
8415;SDS011;4245;42.120;24.732;2022-07-15T03:00:32;5.97;;;3.70;;
8415;SDS011;4245;42.120;24.732;2022-07-15T03:03:00;7.90;;;3.87;;
8415;SDS011;4245;42.120;24.732;2022-07-15T03:05:27;6.17;;;3.77;;
8415;SDS011;4245;42.120;24.732;2022-07-15T03:07:54;7.33;;;4.03;;
8415;SDS011;4245;42.120;24.732;2022-07-15T03:10:21;7.43;;;3.40;;
8415;SDS011;4245;42.120;24.732;2022-07-15T03:12:48;6.00;;;3.53;;
8415;SDS011;4245;42.120;24.732;2022-07-15T03:15:15;9.70;;;4.10;;
8415;SDS011;4245;42.120;24.732;2022-07-15T03:17:42;5.63;;;3.87;;
8415;SDS011;4245;42.120;24.732;2022-07-15T03:20:10;4.87;;;4.10;;
8415;SDS011;4245;42.120;24.732;2022-07-15T03:22:37;5.57;;;3.93;;
8415;SDS011;4245;42.120;24.732;2022-07-15T03:25:05;7.37;;;4.10;;
8415;SDS011;4245;42.120;24.732;2022-07-15T03:27:32;7.00;;;3.73;;
8415;SDS011;4245;42.120;24.732;2022-07-15T03:30:00;6.90;;;3.83;;
8415;SDS011;4245;42.120;24.732;2022-07-15T03:32:27;6.77;;;4.30;;
8415;SDS011;4245;42.120;24.732;2022-07-15T03:34:54;5.27;;;3.63;;
8415;SDS011;4245;42.120;24.732;2022-07-15T03:37:23;5.03;;;4.10;;
8415;SDS011;4245;42.120;24.732;2022-07-15T03:39:51;5.13;;;4.00;;
8415;SDS011;4245;42.120;24.732;2022-07-15T03:42:17;7.40;;;3.63;;
8415;SDS011;4245;42.120;24.732;2022-07-15T03:44:44;6.37;;;4.10;;
8415;SDS011;4245;42.120;24.732;2022-07-15T03:47:11;8.23;;;4.70;;
8415;SDS011;4245;42.120;24.732;2022-07-15T03:49:39;4.73;;;4.00;;
8415;SDS011;4245;42.120;24.732;2022-07-15T03:52:06;7.80;;;4.50;;
8415;SDS011;4245;42.120;24.732;2022-07-15T03:54:35;5.70;;;4.53;;
8415;SDS011;4245;42.120;24.732;2022-07-15T03:57:03;8.07;;;4.27;;
8415;SDS011;4245;42.120;24.732;2022-07-15T03:59:30;7.50;;;4.03;;
8415;SDS011;4245;42.120;24.732;2022-07-15T04:01:57;10.97;;;4.30;;
8415;SDS011;4245;42.120;24.732;2022-07-15T04:04:25;13.07;;;6.63;;
8415;SDS011;4245;42.120;24.732;2022-07-15T04:06:51;9.87;;;7.20;;
8415;SDS011;4245;42.120;24.732;2022-07-15T04:09:18;7.87;;;5.70;;
8415;SDS011;4245;42.120;24.732;2022-07-15T04:11:47;11.30;;;5.33;;
8415;SDS011;4245;42.120;24.732;2022-07-15T04:14:14;10.27;;;5.70;;
8415;SDS011;4245;42.120;24.732;2022-07-15T04:16:43;14.27;;;5.17;;
8415;SDS011;4245;42.120;24.732;2022-07-15T04:19:10;9.20;;;6.10;;
8415;SDS011;4245;42.120;24.732;2022-07-15T04:21:37;7.73;;;5.50;;
8415;SDS011;4245;42.120;24.732;2022-07-15T04:24:04;14.63;;;7.37;;
8415;SDS011;4245;42.120;24.732;2022-07-15T04:26:31;11.03;;;5.50;;
8415;SDS011;4245;42.120;24.732;2022-07-15T04:29:00;10.60;;;5.00;;
8415;SDS011;4245;42.120;24.732;2022-07-15T04:31:27;12.43;;;5.67;;
8415;SDS011;4245;42.120;24.732;2022-07-15T04:33:55;10.13;;;4.80;;
8415;SDS011;4245;42.120;24.732;2022-07-15T04:36:23;11.07;;;6.60;;
8415;SDS011;4245;42.120;24.732;2022-07-15T04:38:50;9.37;;;4.37;;
8415;SDS011;4245;42.120;24.732;2022-07-15T04:41:16;7.80;;;5.17;;
8415;SDS011;4245;42.120;24.732;2022-07-15T04:43:43;7.80;;;4.33;;
8415;SDS011;4245;42.120;24.732;2022-07-15T04:46:12;5.73;;;4.33;;
8415;SDS011;4245;42.120;24.732;2022-07-15T04:48:39;6.27;;;4.40;;
8415;SDS011;4245;42.120;24.732;2022-07-15T04:51:23;11.57;;;4.20;;
8415;SDS011;4245;42.120;24.732;2022-07-15T04:53:49;10.67;;;4.10;;
8415;SDS011;4245;42.120;24.732;2022-07-15T04:56:16;11.87;;;4.47;;
8415;SDS011;4245;42.120;24.732;2022-07-15T04:58:43;6.90;;;4.30;;
8415;SDS011;4245;42.120;24.732;2022-07-15T05:01:11;11.93;;;4.30;;
8415;SDS011;4245;42.120;24.732;2022-07-15T05:03:38;11.83;;;4.53;;
8415;SDS011;4245;42.120;24.732;2022-07-15T05:06:05;12.03;;;4.17;;
8415;SDS011;4245;42.120;24.732;2022-07-15T05:08:32;10.67;;;4.27;;
8415;SDS011;4245;42.120;24.732;2022-07-15T05:10:59;9.13;;;4.23;;
8415;SDS011;4245;42.120;24.732;2022-07-15T05:13:26;11.10;;;4.30;;
8415;SDS011;4245;42.120;24.732;2022-07-15T05:15:53;10.73;;;4.67;;
8415;SDS011;4245;42.120;24.732;2022-07-15T05:18:21;12.57;;;5.57;;
8415;SDS011;4245;42.120;24.732;2022-07-15T05:20:48;9.37;;;5.83;;
8415;SDS011;4245;42.120;24.732;2022-07-15T05:23:15;11.33;;;5.43;;
8415;SDS011;4245;42.120;24.732;2022-07-15T05:25:43;10.53;;;4.87;;
8415;SDS011;4245;42.120;24.732;2022-07-15T05:28:10;9.37;;;4.87;;
8415;SDS011;4245;42.120;24.732;2022-07-15T05:30:38;6.90;;;4.33;;
8415;SDS011;4245;42.120;24.732;2022-07-15T05:33:05;9.63;;;4.90;;
8415;SDS011;4245;42.120;24.732;2022-07-15T05:35:34;7.97;;;4.70;;
8415;SDS011;4245;42.120;24.732;2022-07-15T05:38:01;9.60;;;4.20;;
8415;SDS011;4245;42.120;24.732;2022-07-15T05:40:29;7.93;;;4.10;;
8415;SDS011;4245;42.120;24.732;2022-07-15T05:42:55;6.93;;;4.27;;
8415;SDS011;4245;42.120;24.732;2022-07-15T05:45:23;7.83;;;4.00;;
8415;SDS011;4245;42.120;24.732;2022-07-15T05:47:51;7.20;;;3.77;;
8415;SDS011;4245;42.120;24.732;2022-07-15T05:50:19;6.07;;;4.60;;
8415;SDS011;4245;42.120;24.732;2022-07-15T05:52:54;6.73;;;3.80;;
8415;SDS011;4245;42.120;24.732;2022-07-15T05:55:21;7.50;;;3.83;;
8415;SDS011;4245;42.120;24.732;2022-07-15T05:57:50;8.03;;;3.93;;
8415;SDS011;4245;42.120;24.732;2022-07-15T06:00:17;13.17;;;4.40;;
8415;SDS011;4245;42.120;24.732;2022-07-15T06:02:44;8.33;;;4.03;;
8415;SDS011;4245;42.120;24.732;2022-07-15T06:05:11;5.73;;;4.20;;
8415;SDS011;4245;42.120;24.732;2022-07-15T06:07:38;8.05;;;4.38;;
8415;SDS011;4245;42.120;24.732;2022-07-15T06:10:08;9.95;;;4.05;;
8415;SDS011;4245;42.120;24.732;2022-07-15T06:12:36;11.43;;;4.50;;
8415;SDS011;4245;42.120;24.732;2022-07-15T06:15:03;6.93;;;4.00;;
8415;SDS011;4245;42.120;24.732;2022-07-15T06:17:31;11.10;;;3.93;;
8415;SDS011;4245;42.120;24.732;2022-07-15T06:19:58;5.82;;;3.92;;
8415;SDS011;4245;42.120;24.732;2022-07-15T06:22:25;6.10;;;4.00;;
8415;SDS011;4245;42.120;24.732;2022-07-15T06:24:52;8.10;;;4.30;;
8415;SDS011;4245;42.120;24.732;2022-07-15T06:27:20;7.32;;;3.70;;
8415;SDS011;4245;42.120;24.732;2022-07-15T06:29:48;9.93;;;4.13;;
8415;SDS011;4245;42.120;24.732;2022-07-15T06:32:14;4.15;;;3.65;;
8415;SDS011;4245;42.120;24.732;2022-07-15T06:34:41;8.05;;;4.03;;
8415;SDS011;4245;42.120;24.732;2022-07-15T06:37:08;6.93;;;3.65;;
8415;SDS011;4245;42.120;24.732;2022-07-15T06:39:35;8.43;;;3.83;;
8415;SDS011;4245;42.120;24.732;2022-07-15T06:42:02;5.72;;;3.67;;
8415;SDS011;4245;42.120;24.732;2022-07-15T06:47:06;6.03;;;4.00;;
8415;SDS011;4245;42.120;24.732;2022-07-15T06:49:33;8.02;;;3.40;;
8415;SDS011;4245;42.120;24.732;2022-07-15T06:52:00;4.82;;;3.50;;
8415;SDS011;4245;42.120;24.732;2022-07-15T06:54:27;5.28;;;4.13;;
8415;SDS011;4245;42.120;24.732;2022-07-15T06:56:54;8.90;;;3.67;;
8415;SDS011;4245;42.120;24.732;2022-07-15T06:59:21;11.93;;;4.18;;
8415;SDS011;4245;42.120;24.732;2022-07-15T07:01:47;5.15;;;3.53;;
8415;SDS011;4245;42.120;24.732;2022-07-15T07:04:16;7.82;;;3.83;;
8415;SDS011;4245;42.120;24.732;2022-07-15T07:06:43;4.95;;;3.33;;
8415;SDS011;4245;42.120;24.732;2022-07-15T07:09:10;5.15;;;3.83;;
8415;SDS011;4245;42.120;24.732;2022-07-15T07:11:37;5.70;;;3.35;;
8415;SDS011;4245;42.120;24.732;2022-07-15T07:14:06;5.30;;;3.42;;
8415;SDS011;4245;42.120;24.732;2022-07-15T07:16:33;3.45;;;2.85;;
8415;SDS011;4245;42.120;24.732;2022-07-15T07:19:00;6.88;;;3.47;;
8415;SDS011;4245;42.120;24.732;2022-07-15T07:21:29;4.45;;;3.50;;
8415;SDS011;4245;42.120;24.732;2022-07-15T07:23:56;3.80;;;3.33;;
8415;SDS011;4245;42.120;24.732;2022-07-15T07:26:23;9.93;;;6.00;;
8415;SDS011;4245;42.120;24.732;2022-07-15T07:28:50;10.55;;;5.18;;
8415;SDS011;4245;42.120;24.732;2022-07-15T07:31:17;12.15;;;6.40;;
8415;SDS011;4245;42.120;24.732;2022-07-15T07:33:48;10.00;;;4.93;;
8415;SDS011;4245;42.120;24.732;2022-07-15T07:36:14;6.88;;;3.80;;
8415;SDS011;4245;42.120;24.732;2022-07-15T07:38:43;8.57;;;3.60;;
8415;SDS011;4245;42.120;24.732;2022-07-15T07:41:10;6.15;;;3.47;;
8415;SDS011;4245;42.120;24.732;2022-07-15T07:43:36;6.47;;;3.58;;
8415;SDS011;4245;42.120;24.732;2022-07-15T07:46:05;5.10;;;3.30;;
8415;SDS011;4245;42.120;24.732;2022-07-15T07:48:32;5.32;;;3.13;;
8415;SDS011;4245;42.120;24.732;2022-07-15T07:50:59;10.25;;;5.53;;
8415;SDS011;4245;42.120;24.732;2022-07-15T07:53:25;10.00;;;8.20;;
8415;SDS011;4245;42.120;24.732;2022-07-15T07:55:54;6.43;;;4.20;;
8415;SDS011;4245;42.120;24.732;2022-07-15T07:58:21;10.23;;;6.00;;
8415;SDS011;4245;42.120;24.732;2022-07-15T08:00:48;6.00;;;4.32;;
8415;SDS011;4245;42.120;24.732;2022-07-15T08:03:17;3.50;;;3.20;;
8415;SDS011;4245;42.120;24.732;2022-07-15T08:05:45;7.20;;;3.33;;
8415;SDS011;4245;42.120;24.732;2022-07-15T08:08:12;3.97;;;3.58;;
8415;SDS011;4245;42.120;24.732;2022-07-15T08:10:41;9.73;;;5.15;;
8415;SDS011;4245;42.120;24.732;2022-07-15T08:13:10;7.78;;;5.50;;
8415;SDS011;4245;42.120;24.732;2022-07-15T08:15:38;9.65;;;3.13;;
8415;SDS011;4245;42.120;24.732;2022-07-15T08:18:05;9.98;;;6.20;;
8415;SDS011;4245;42.120;24.732;2022-07-15T08:20:32;6.60;;;4.22;;
8415;SDS011;4245;42.120;24.732;2022-07-15T08:23:01;6.80;;;3.20;;
8415;SDS011;4245;42.120;24.732;2022-07-15T08:25:29;7.72;;;3.40;;
8415;SDS011;4245;42.120;24.732;2022-07-15T08:27:59;8.65;;;3.30;;
8415;SDS011;4245;42.120;24.732;2022-07-15T08:30:28;7.80;;;3.97;;
8415;SDS011;4245;42.120;24.732;2022-07-15T08:32:57;5.97;;;3.05;;
8415;SDS011;4245;42.120;24.732;2022-07-15T08:35:24;8.18;;;3.33;;
8415;SDS011;4245;42.120;24.732;2022-07-15T08:37:52;3.75;;;2.58;;
8415;SDS011;4245;42.120;24.732;2022-07-15T08:40:19;6.28;;;2.80;;
8415;SDS011;4245;42.120;24.732;2022-07-15T08:42:46;12.13;;;4.65;;
8415;SDS011;4245;42.120;24.732;2022-07-15T08:45:14;7.15;;;3.15;;
8415;SDS011;4245;42.120;24.732;2022-07-15T08:47:45;7.28;;;3.03;;
8415;SDS011;4245;42.120;24.732;2022-07-15T08:50:15;8.55;;;3.83;;
8415;SDS011;4245;42.120;24.732;2022-07-15T08:52:44;3.97;;;2.90;;
8415;SDS011;4245;42.120;24.732;2022-07-15T08:55:12;8.82;;;3.13;;
8415;SDS011;4245;42.120;24.732;2022-07-15T08:57:44;3.72;;;3.05;;
8415;SDS011;4245;42.120;24.732;2022-07-15T09:00:11;4.95;;;3.40;;
8415;SDS011;4245;42.120;24.732;2022-07-15T09:02:39;5.13;;;2.70;;
8415;SDS011;4245;42.120;24.732;2022-07-15T09:05:20;3.88;;;2.90;;
8415;SDS011;4245;42.120;24.732;2022-07-15T09:07:59;6.57;;;3.35;;
8415;SDS011;4245;42.120;24.732;2022-07-15T09:10:41;6.18;;;3.00;;
8415;SDS011;4245;42.120;24.732;2022-07-15T09:13:10;7.15;;;3.00;;
8415;SDS011;4245;42.120;24.732;2022-07-15T09:15:39;3.22;;;2.92;;
8415;SDS011;4245;42.120;24.732;2022-07-15T09:18:11;6.30;;;3.00;;
8415;SDS011;4245;42.120;24.732;2022-07-15T09:20:41;5.28;;;3.00;;
8415;SDS011;4245;42.120;24.732;2022-07-15T09:23:09;7.72;;;3.35;;
8415;SDS011;4245;42.120;24.732;2022-07-15T09:25:37;5.68;;;3.00;;
8415;SDS011;4245;42.120;24.732;2022-07-15T09:28:06;5.72;;;3.70;;
8415;SDS011;4245;42.120;24.732;2022-07-15T09:30:35;5.68;;;4.07;;
8415;SDS011;4245;42.120;24.732;2022-07-15T09:33:21;5.53;;;4.03;;
8415;SDS011;4245;42.120;24.732;2022-07-15T09:36:13;6.55;;;2.83;;
8415;SDS011;4245;42.120;24.732;2022-07-15T09:38:43;5.38;;;3.00;;
8415;SDS011;4245;42.120;24.732;2022-07-15T09:41:13;5.38;;;3.10;;
8415;SDS011;4245;42.120;24.732;2022-07-15T09:43:48;4.78;;;2.92;;
8415;SDS011;4245;42.120;24.732;2022-07-15T09:46:17;6.05;;;3.05;;
8415;SDS011;4245;42.120;24.732;2022-07-15T09:48:46;6.85;;;4.05;;
8415;SDS011;4245;42.120;24.732;2022-07-15T09:51:16;5.28;;;3.47;;
8415;SDS011;4245;42.120;24.732;2022-07-15T09:53:43;4.00;;;3.10;;
8415;SDS011;4245;42.120;24.732;2022-07-15T09:56:11;4.15;;;3.30;;
8415;SDS011;4245;42.120;24.732;2022-07-15T09:58:40;5.57;;;3.88;;
8415;SDS011;4245;42.120;24.732;2022-07-15T10:01:09;5.97;;;3.05;;
8415;SDS011;4245;42.120;24.732;2022-07-15T10:03:37;4.40;;;3.03;;
8415;SDS011;4245;42.120;24.732;2022-07-15T10:06:06;7.72;;;4.70;;
8415;SDS011;4245;42.120;24.732;2022-07-15T10:08:35;6.47;;;3.38;;
8415;SDS011;4245;42.120;24.732;2022-07-15T10:11:05;5.15;;;3.88;;
8415;SDS011;4245;42.120;24.732;2022-07-15T10:19:48;4.85;;;2.97;;
8415;SDS011;4245;42.120;24.732;2022-07-15T10:22:37;4.03;;;2.80;;
8415;SDS011;4245;42.120;24.732;2022-07-15T10:25:17;6.07;;;3.28;;
8415;SDS011;4245;42.120;24.732;2022-07-15T10:27:56;5.35;;;2.83;;
8415;SDS011;4245;42.120;24.732;2022-07-15T10:30:29;2.78;;;2.03;;
8415;SDS011;4245;42.120;24.732;2022-07-15T10:33:10;3.97;;;2.42;;
8415;SDS011;4245;42.120;24.732;2022-07-15T10:35:46;4.32;;;3.33;;
8415;SDS011;4245;42.120;24.732;2022-07-15T10:38:22;6.72;;;3.40;;
8415;SDS011;4245;42.120;24.732;2022-07-15T10:41:02;5.25;;;2.60;;
8415;SDS011;4245;42.120;24.732;2022-07-15T10:43:37;2.80;;;2.10;;
8415;SDS011;4245;42.120;24.732;2022-07-15T10:46:13;2.60;;;2.20;;
8415;SDS011;4245;42.120;24.732;2022-07-15T10:48:45;5.90;;;2.10;;
8415;SDS011;4245;42.120;24.732;2022-07-15T10:51:13;8.32;;;3.47;;
8415;SDS011;4245;42.120;24.732;2022-07-15T11:00:26;4.78;;;2.88;;
8415;SDS011;4245;42.120;24.732;2022-07-15T11:03:03;4.32;;;2.80;;
8415;SDS011;4245;42.120;24.732;2022-07-15T11:05:31;5.38;;;2.95;;
8415;SDS011;4245;42.120;24.732;2022-07-15T11:07:59;3.38;;;2.50;;
8415;SDS011;4245;42.120;24.732;2022-07-15T11:10:26;5.70;;;2.28;;
8415;SDS011;4245;42.120;24.732;2022-07-15T11:12:58;3.72;;;2.20;;
8415;SDS011;4245;42.120;24.732;2022-07-15T11:15:29;3.60;;;2.05;;
8415;SDS011;4245;42.120;24.732;2022-07-15T11:17:57;5.85;;;2.33;;
8415;SDS011;4245;42.120;24.732;2022-07-15T11:20:26;5.47;;;2.13;;
8415;SDS011;4245;42.120;24.732;2022-07-15T11:22:56;2.70;;;1.90;;
8415;SDS011;4245;42.120;24.732;2022-07-15T11:25:24;7.18;;;1.80;;
8415;SDS011;4245;42.120;24.732;2022-07-15T11:28:04;4.78;;;1.80;;
8415;SDS011;4245;42.120;24.732;2022-07-15T11:30:34;9.02;;;2.30;;
8415;SDS011;4245;42.120;24.732;2022-07-15T11:33:04;3.30;;;2.15;;
8415;SDS011;4245;42.120;24.732;2022-07-15T11:35:41;5.05;;;2.45;;
8415;SDS011;4245;42.120;24.732;2022-07-15T11:38:09;4.10;;;2.10;;
8415;SDS011;4245;42.120;24.732;2022-07-15T11:40:37;4.07;;;2.35;;
8415;SDS011;4245;42.120;24.732;2022-07-15T11:43:28;3.20;;;2.20;;
8415;SDS011;4245;42.120;24.732;2022-07-15T11:46:12;6.78;;;2.20;;
8415;SDS011;4245;42.120;24.732;2022-07-15T11:48:38;7.38;;;3.00;;
8415;SDS011;4245;42.120;24.732;2022-07-15T11:51:06;5.00;;;2.65;;
8415;SDS011;4245;42.120;24.732;2022-07-15T11:53:35;4.65;;;2.58;;
8415;SDS011;4245;42.120;24.732;2022-07-15T11:56:03;15.15;;;3.35;;
8415;SDS011;4245;42.120;24.732;2022-07-15T11:58:34;8.35;;;2.72;;
8415;SDS011;4245;42.120;24.732;2022-07-15T12:01:03;2.33;;;2.13;;
8415;SDS011;4245;42.120;24.732;2022-07-15T12:03:33;2.53;;;2.30;;
8415;SDS011;4245;42.120;24.732;2022-07-15T12:06:02;5.10;;;2.25;;
8415;SDS011;4245;42.120;24.732;2022-07-15T12:08:35;2.28;;;2.08;;
8415;SDS011;4245;42.120;24.732;2022-07-15T12:11:08;6.93;;;2.00;;
8415;SDS011;4245;42.120;24.732;2022-07-15T12:13:41;2.65;;;2.45;;
8415;SDS011;4245;42.120;24.732;2022-07-15T12:16:13;3.80;;;2.17;;
8415;SDS011;4245;42.120;24.732;2022-07-15T12:18:45;6.65;;;2.08;;
8415;SDS011;4245;42.120;24.732;2022-07-15T12:21:12;4.05;;;2.00;;
8415;SDS011;4245;42.120;24.732;2022-07-15T12:23:41;3.78;;;2.50;;
8415;SDS011;4245;42.120;24.732;2022-07-15T12:26:09;4.05;;;2.50;;
8415;SDS011;4245;42.120;24.732;2022-07-15T12:28:37;5.75;;;2.20;;
8415;SDS011;4245;42.120;24.732;2022-07-15T12:31:05;7.97;;;2.67;;
8415;SDS011;4245;42.120;24.732;2022-07-15T12:33:35;5.20;;;2.17;;
8415;SDS011;4245;42.120;24.732;2022-07-15T12:36:12;3.95;;;2.22;;
8415;SDS011;4245;42.120;24.732;2022-07-15T12:38:40;5.30;;;2.10;;
8415;SDS011;4245;42.120;24.732;2022-07-15T12:41:08;2.78;;;2.10;;
8415;SDS011;4245;42.120;24.732;2022-07-15T12:43:45;4.68;;;2.42;;
8415;SDS011;4245;42.120;24.732;2022-07-15T12:46:14;3.72;;;2.25;;
8415;SDS011;4245;42.120;24.732;2022-07-15T12:48:43;2.60;;;2.35;;
8415;SDS011;4245;42.120;24.732;2022-07-15T12:51:11;2.80;;;2.60;;
8415;SDS011;4245;42.120;24.732;2022-07-15T12:53:38;3.95;;;2.45;;
8415;SDS011;4245;42.120;24.732;2022-07-15T12:56:06;3.50;;;2.00;;
8415;SDS011;4245;42.120;24.732;2022-07-15T12:58:33;4.55;;;2.30;;
8415;SDS011;4245;42.120;24.732;2022-07-15T13:01:03;3.80;;;2.33;;
8415;SDS011;4245;42.120;24.732;2022-07-15T13:03:33;6.18;;;2.30;;
8415;SDS011;4245;42.120;24.732;2022-07-15T13:06:00;4.18;;;2.38;;
8415;SDS011;4245;42.120;24.732;2022-07-15T13:08:28;3.20;;;2.10;;
8415;SDS011;4245;42.120;24.732;2022-07-15T13:10:57;2.40;;;2.17;;
8415;SDS011;4245;42.120;24.732;2022-07-15T13:13:26;5.25;;;2.20;;
8415;SDS011;4245;42.120;24.732;2022-07-15T13:15:54;3.55;;;2.58;;
8415;SDS011;4245;42.120;24.732;2022-07-15T13:18:21;5.20;;;2.35;;
8415;SDS011;4245;42.120;24.732;2022-07-15T13:20:51;5.78;;;2.72;;
8415;SDS011;4245;42.120;24.732;2022-07-15T13:23:19;3.67;;;2.22;;
8415;SDS011;4245;42.120;24.732;2022-07-15T13:25:46;3.47;;;2.40;;
8415;SDS011;4245;42.120;24.732;2022-07-15T13:28:16;9.25;;;2.38;;
8415;SDS011;4245;42.120;24.732;2022-07-15T13:30:43;6.35;;;2.30;;
8415;SDS011;4245;42.120;24.732;2022-07-15T13:33:10;3.80;;;2.50;;
8415;SDS011;4245;42.120;24.732;2022-07-15T13:35:37;3.38;;;2.25;;
8415;SDS011;4245;42.120;24.732;2022-07-15T13:38:06;4.25;;;2.63;;
8415;SDS011;4245;42.120;24.732;2022-07-15T13:40:33;6.03;;;2.38;;
8415;SDS011;4245;42.120;24.732;2022-07-15T13:43:00;3.15;;;2.50;;
8415;SDS011;4245;42.120;24.732;2022-07-15T13:45:27;3.55;;;2.15;;
8415;SDS011;4245;42.120;24.732;2022-07-15T13:47:54;6.60;;;2.60;;
8415;SDS011;4245;42.120;24.732;2022-07-15T13:50:21;4.60;;;3.50;;
8415;SDS011;4245;42.120;24.732;2022-07-15T13:53:06;4.68;;;2.30;;
8415;SDS011;4245;42.120;24.732;2022-07-15T13:55:33;3.58;;;2.40;;
8415;SDS011;4245;42.120;24.732;2022-07-15T13:58:00;3.90;;;2.30;;
8415;SDS011;4245;42.120;24.732;2022-07-15T14:00:27;4.70;;;2.33;;
8415;SDS011;4245;42.120;24.732;2022-07-15T14:02:54;4.53;;;2.30;;
8415;SDS011;4245;42.120;24.732;2022-07-15T14:05:22;2.65;;;2.10;;
8415;SDS011;4245;42.120;24.732;2022-07-15T14:07:49;3.55;;;2.42;;
8415;SDS011;4245;42.120;24.732;2022-07-15T14:10:17;2.80;;;2.38;;
8415;SDS011;4245;42.120;24.732;2022-07-15T14:12:44;3.47;;;2.20;;
8415;SDS011;4245;42.120;24.732;2022-07-15T14:15:11;4.53;;;2.30;;
8415;SDS011;4245;42.120;24.732;2022-07-15T14:17:38;4.10;;;2.58;;
8415;SDS011;4245;42.120;24.732;2022-07-15T14:20:05;4.03;;;2.40;;
8415;SDS011;4245;42.120;24.732;2022-07-15T14:22:34;2.33;;;2.13;;
8415;SDS011;4245;42.120;24.732;2022-07-15T14:25:01;3.15;;;2.33;;
8415;SDS011;4245;42.120;24.732;2022-07-15T14:27:31;2.55;;;2.35;;
8415;SDS011;4245;42.120;24.732;2022-07-15T14:29:58;3.65;;;2.30;;
8415;SDS011;4245;42.120;24.732;2022-07-15T14:32:24;4.82;;;2.25;;
8415;SDS011;4245;42.120;24.732;2022-07-15T14:34:51;4.70;;;2.67;;
8415;SDS011;4245;42.120;24.732;2022-07-15T14:37:18;5.57;;;2.25;;
8415;SDS011;4245;42.120;24.732;2022-07-15T14:39:45;5.18;;;2.53;;
8415;SDS011;4245;42.120;24.732;2022-07-15T14:42:12;3.50;;;2.40;;
8415;SDS011;4245;42.120;24.732;2022-07-15T14:44:40;3.53;;;2.58;;
8415;SDS011;4245;42.120;24.732;2022-07-15T14:47:07;4.85;;;2.40;;
8415;SDS011;4245;42.120;24.732;2022-07-15T14:49:34;5.03;;;2.55;;
8415;SDS011;4245;42.120;24.732;2022-07-15T14:52:01;3.30;;;2.30;;
8415;SDS011;4245;42.120;24.732;2022-07-15T14:54:28;5.25;;;2.20;;
8415;SDS011;4245;42.120;24.732;2022-07-15T14:56:55;4.85;;;2.53;;
8415;SDS011;4245;42.120;24.732;2022-07-15T14:59:22;3.05;;;2.45;;
8415;SDS011;4245;42.120;24.732;2022-07-15T15:01:50;3.88;;;2.17;;
8415;SDS011;4245;42.120;24.732;2022-07-15T15:04:18;2.88;;;2.42;;
8415;SDS011;4245;42.120;24.732;2022-07-15T15:06:45;5.47;;;2.50;;
8415;SDS011;4245;42.120;24.732;2022-07-15T15:09:12;6.53;;;2.30;;
8415;SDS011;4245;42.120;24.732;2022-07-15T15:11:39;5.10;;;2.92;;
8415;SDS011;4245;42.120;24.732;2022-07-15T15:14:05;6.03;;;2.80;;
8415;SDS011;4245;42.120;24.732;2022-07-15T15:16:32;6.00;;;2.58;;
8415;SDS011;4245;42.120;24.732;2022-07-15T15:19:00;3.38;;;2.42;;
8415;SDS011;4245;42.120;24.732;2022-07-15T15:21:27;2.92;;;2.10;;
8415;SDS011;4245;42.120;24.732;2022-07-15T15:23:54;4.50;;;3.15;;